TimeEST,TemperatureF,Dew PointF,Humidity,Sea Level PressureIn,VisibilityMPH,Wind Direction,Wind SpeedMPH,Gust SpeedMPH,PrecipitationIn,Events,Conditions,WindDirDegrees,DateUTC
12:52 AM,-6.0,-11.0,79,30.36,10.0,Calm,Calm,-,N/A,,Clear,0,2005-01-31 05:52:00
1:52 AM,-9.0,-14.1,79,30.38,10.0,Calm,Calm,-,N/A,,Clear,0,2005-01-31 06:52:00
2:52 AM,-11.0,-17.0,75,30.39,10.0,Calm,Calm,-,N/A,,Clear,0,2005-01-31 07:52:00
3:52 AM,-11.0,-17.0,75,30.41,10.0,Calm,Calm,-,N/A,,Clear,0,2005-01-31 08:52:00
4:52 AM,-13.0,-18.9,75,30.43,10.0,Calm,Calm,-,N/A,,Clear,0,2005-01-31 09:52:00
5:52 AM,-11.9,-17.0,78,30.45,10.0,Calm,Calm,-,N/A,,Clear,0,2005-01-31 10:52:00
7:52 AM,-11.9,-16.1,82,30.50,5.0,Calm,Calm,-,N/A,,Clear,0,2005-01-31 12:52:00
8:52 AM,-6.0,-11.0,79,30.49,8.0,Calm,Calm,-,N/A,,Clear,0,2005-01-31 13:52:00
9:52 AM,3.9,-2.0,76,30.48,10.0,Calm,Calm,-,N/A,,Clear,0,2005-01-31 14:52:00
10:52 AM,12.9,3.0,65,30.48,10.0,Calm,Calm,-,N/A,,Clear,0,2005-01-31 15:52:00
11:52 AM,21.0,3.9,48,30.44,10.0,Calm,Calm,-,N/A,,Clear,0,2005-01-31 16:52:00
12:52 PM,28.0,-0.0,30,30.42,10.0,North,3.5,-,N/A,,Clear,350,2005-01-31 17:52:00
1:52 PM,30.0,-2.0,25,30.40,10.0,Calm,Calm,-,N/A,,Clear,0,2005-01-31 18:52:00
2:52 PM,32.0,-2.0,23,30.40,10.0,Calm,Calm,-,N/A,,Clear,0,2005-01-31 19:52:00
4:52 PM,23.0,6.1,48,30.42,10.0,Calm,Calm,-,N/A,,Clear,0,2005-01-31 21:52:00
5:52 PM,16.0,5.0,62,30.44,10.0,Calm,Calm,-,N/A,,Clear,0,2005-01-31 22:52:00
6:52 PM,12.0,5.0,73,30.45,10.0,Calm,Calm,-,N/A,,Clear,0,2005-01-31 23:52:00
7:52 PM,7.0,1.9,80,30.45,10.0,Calm,Calm,-,N/A,,Clear,0,2005-02-01 00:52:00
8:52 PM,5.0,1.9,87,30.46,10.0,Calm,Calm,-,N/A,,Clear,0,2005-02-01 01:52:00
9:52 PM,1.9,-0.9,88,30.45,10.0,Calm,Calm,-,N/A,,Clear,0,2005-02-01 02:52:00
10:52 PM,-0.0,-4.0,83,30.44,10.0,Calm,Calm,-,N/A,,Clear,0,2005-02-01 03:52:00
11:52 PM,-0.0,-4.0,83,30.43,10.0,Calm,Calm,-,N/A,,Clear,0,2005-02-01 04:52:00